Time;durP1;ratioP1;P1;durP2;ratioP2;P2;SDS_P1;SDS_P2;PMS_P1;PMS_P2;Temp;Humidity;BMP_temperature;BMP_pressure;BME280_temperature;BME280_humidity;BME280_pressure;Samples;Min_cycle;Max_cycle;Signal;HPM_P1;HPM_P2
2022/10/24 00:02:02;;;;;;;94.63;89.93;;;15.20;99.90;;;;;;5049994;28;20398;-58
2022/10/24 00:04:27;;;;;;;90.83;85.77;;;15.20;99.90;;;;;;5051179;28;20432;-58
2022/10/24 00:06:53;;;;;;;85.30;81.10;;;15.20;99.90;;;;;;5051429;28;20413;-58
2022/10/24 00:09:18;;;;;;;90.97;86.38;;;15.20;99.90;;;;;;5050002;28;20742;-58
2022/10/24 00:11:44;;;;;;;85.87;81.50;;;15.30;99.90;;;;;;5050167;28;20400;-58
2022/10/24 00:14:09;;;;;;;91.70;87.05;;;15.20;99.90;;;;;;5049493;28;20805;-59
2022/10/24 00:16:35;;;;;;;90.30;85.70;;;15.20;99.90;;;;;;5048016;28;20400;-57
2022/10/24 00:19:01;;;;;;;91.73;86.83;;;15.20;99.90;;;;;;5049668;28;20882;-59
2022/10/24 00:21:26;;;;;;;90.20;85.32;;;15.10;99.90;;;;;;5048874;28;20762;-55
2022/10/24 00:23:52;;;;;;;96.47;91.82;;;15.10;99.90;;;;;;5049126;28;20508;-54
2022/10/24 00:26:18;;;;;;;94.63;89.87;;;15.10;99.90;;;;;;5050268;28;20385;-57
2022/10/24 00:28:43;;;;;;;95.93;90.87;;;15.00;99.90;;;;;;5052051;28;20455;-58
2022/10/24 00:31:14;;;;;;;90.68;86.07;;;15.10;99.90;;;;;;5052726;28;20485;-59
2022/10/24 00:33:40;;;;;;;88.45;83.97;;;15.00;99.90;;;;;;5050926;28;20440;-60
2022/10/24 00:36:09;;;;;;;90.40;85.82;;;15.10;99.90;;;;;;5062642;28;20703;-56
2022/10/24 00:38:35;;;;;;;91.65;87.07;;;15.10;99.90;;;;;;5071416;28;20379;-57
2022/10/24 00:41:00;;;;;;;91.25;86.88;;;15.10;99.90;;;;;;5053824;28;20404;-57
2022/10/24 00:43:26;;;;;;;98.23;93.43;;;15.10;99.90;;;;;;5052987;28;20611;-58
2022/10/24 00:45:57;;;;;;;93.87;89.27;;;15.10;99.90;;;;;;5052622;28;20449;-57
2022/10/24 00:48:47;;;;;;;92.47;87.72;;;15.10;99.90;;;;;;5053897;28;20777;-58
2022/10/24 00:51:23;;;;;;;94.15;89.47;;;15.10;99.90;;;;;;5051715;28;20581;-58
2022/10/24 00:53:52;;;;;;;92.97;88.47;;;15.10;99.90;;;;;;5069325;28;20391;-59
2022/10/24 00:56:21;;;;;;;92.65;88.15;;;15.10;99.90;;;;;;5051306;28;20673;-59
2022/10/24 00:58:48;;;;;;;91.05;86.43;;;15.00;99.90;;;;;;5051027;28;20395;-57
2022/10/24 01:01:13;;;;;;;96.27;91.43;;;15.00;99.90;;;;;;5050629;28;20801;-57
2022/10/24 01:03:39;;;;;;;90.60;85.97;;;15.00;99.90;;;;;;5050523;28;20490;-57
2022/10/24 01:06:20;;;;;;;98.28;93.25;;;15.00;99.90;;;;;;5052954;28;20427;-56
2022/10/24 01:09:03;;;;;;;86.30;82.00;;;15.00;99.90;;;;;;5052000;28;20379;-56
2022/10/24 01:11:43;;;;;;;82.68;78.38;;;15.00;99.90;;;;;;5069909;28;20387;-57
2022/10/24 01:14:28;;;;;;;79.63;75.50;;;15.00;99.90;;;;;;5053421;28;20391;-60
2022/10/24 01:17:03;;;;;;;87.65;83.18;;;15.00;99.90;;;;;;5070997;28;20546;-56
2022/10/24 01:20:00;;;;;;;87.13;82.75;;;15.00;99.90;;;;;;5051840;28;20384;-58
2022/10/24 01:22:43;;;;;;;75.57;71.57;;;15.00;99.90;;;;;;5041951;28;20372;-57
2022/10/24 01:25:16;;;;;;;83.88;79.68;;;15.00;99.90;;;;;;5054916;28;20400;-53
2022/10/24 01:28:06;;;;;;;81.85;77.70;;;15.00;99.90;;;;;;5073584;28;20388;-60
2022/10/24 01:30:42;;;;;;;84.20;80.00;;;15.00;99.90;;;;;;5056772;28;20376;-58
2022/10/24 01:33:31;;;;;;;86.72;82.53;;;15.00;99.90;;;;;;5055867;28;20633;-59
2022/10/24 01:36:09;;;;;;;81.05;76.90;;;15.00;99.90;;;;;;5052347;28;20398;-60
2022/10/24 01:38:41;;;;;;;87.03;82.68;;;14.90;99.90;;;;;;5052242;28;20394;-60
2022/10/24 01:41:13;;;;;;;88.25;83.93;;;14.90;99.90;;;;;;5052147;28;20657;-59
2022/10/24 01:44:08;;;;;;;85.32;81.05;;;14.90;99.90;;;;;;5051992;28;20421;-59
2022/10/24 01:46:41;;;;;;;80.17;75.97;;;14.80;99.90;;;;;;5053166;28;20713;-57
2022/10/24 01:49:16;;;;;;;87.68;83.38;;;14.80;99.90;;;;;;5052567;28;20377;-56
2022/10/24 01:51:42;;;;;;;82.83;78.67;;;14.80;99.90;;;;;;5052164;28;20381;-58
2022/10/24 01:54:10;;;;;;;76.15;72.38;;;14.90;99.90;;;;;;5051485;28;20400;-59
2022/10/24 01:56:35;;;;;;;77.03;73.15;;;14.90;99.90;;;;;;5051561;28;20792;-59
2022/10/24 01:59:05;;;;;;;78.30;74.30;;;14.90;99.90;;;;;;5050571;28;20408;-59
2022/10/24 02:01:31;;;;;;;79.57;75.57;;;14.90;99.90;;;;;;5050796;28;20401;-58
2022/10/24 02:04:01;;;;;;;76.87;73.13;;;14.80;99.90;;;;;;5050339;28;20409;-59
2022/10/24 02:06:37;;;;;;;76.93;73.05;;;14.80;99.90;;;;;;5051035;28;20377;-57
2022/10/24 02:09:15;;;;;;;69.03;65.40;;;14.90;99.90;;;;;;5050438;28;20381;-59
2022/10/24 02:11:42;;;;;;;77.30;73.15;;;14.80;99.90;;;;;;5049101;28;20420;-59
2022/10/24 02:14:11;;;;;;;78.85;74.97;;;14.80;99.90;;;;;;5050461;28;20390;-59
2022/10/24 02:16:37;;;;;;;72.32;68.70;;;14.80;99.90;;;;;;5051847;28;20393;-58
2022/10/24 02:19:03;;;;;;;77.65;73.75;;;14.80;99.90;;;;;;5051284;28;20428;-59
2022/10/24 02:21:49;;;;;;;82.03;77.95;;;14.70;99.90;;;;;;5051737;28;20392;-59
2022/10/24 02:24:24;;;;;;;75.75;71.90;;;14.70;99.90;;;;;;5057196;28;20407;-58
2022/10/24 02:27:22;;;;;;;80.10;76.20;;;14.70;99.90;;;;;;5056766;28;20385;-58
2022/10/24 02:30:17;;;;;;;80.45;76.05;;;14.70;99.90;;;;;;5057178;28;20819;-57
2022/10/24 02:32:47;;;;;;;74.00;70.40;;;14.70;99.90;;;;;;5056396;28;20390;-59
2022/10/24 02:35:16;;;;;;;83.82;79.65;;;14.70;99.90;;;;;;5061521;28;20407;-59
2022/10/24 02:37:46;;;;;;;82.47;78.38;;;14.70;99.90;;;;;;5059654;28;20412;-59
2022/10/24 02:40:14;;;;;;;77.20;73.40;;;14.70;99.90;;;;;;5059153;28;20465;-56
2022/10/24 02:42:42;;;;;;;77.32;73.55;;;14.70;99.90;;;;;;5058777;28;20379;-58
2022/10/24 02:45:09;;;;;;;82.13;77.72;;;14.70;99.90;;;;;;5058711;28;21093;-59
2022/10/24 02:47:36;;;;;;;73.88;70.15;;;14.70;99.90;;;;;;5076771;28;20814;-59
2022/10/24 02:50:03;;;;;;;72.45;68.45;;;14.70;99.90;;;;;;5076999;28;20483;-58
2022/10/24 02:52:29;;;;;;;85.88;81.47;;;14.60;99.90;;;;;;5059773;28;20474;-58
2022/10/24 02:54:55;;;;;;;77.28;73.47;;;14.60;99.90;;;;;;5059845;28;20402;-59
2022/10/24 02:57:22;;;;;;;77.68;73.68;;;14.60;99.90;;;;;;5059582;28;20388;-59
2022/10/24 02:59:48;;;;;;;83.47;79.25;;;14.60;99.90;;;;;;5076833;28;20719;-60
2022/10/24 03:02:13;;;;;;;78.53;74.63;;;14.60;99.90;;;;;;5057887;28;20791;-58
2022/10/24 03:04:39;;;;;;;80.80;76.77;;;14.60;99.90;;;;;;5057471;28;20408;-58
2022/10/24 03:07:06;;;;;;;84.10;79.73;;;14.50;99.90;;;;;;5057606;28;20982;-54
2022/10/24 03:09:32;;;;;;;83.22;78.65;;;14.50;99.90;;;;;;5057565;28;20421;-59
2022/10/24 03:11:58;;;;;;;78.47;74.50;;;14.50;99.90;;;;;;5057337;28;20525;-59
2022/10/24 03:14:24;;;;;;;86.18;81.60;;;14.50;99.90;;;;;;5056717;28;20414;-58
2022/10/24 03:16:49;;;;;;;83.33;79.17;;;14.50;99.90;;;;;;5056336;28;20861;-59
2022/10/24 03:19:15;;;;;;;79.60;75.60;;;14.40;99.90;;;;;;5056536;28;20388;-56
2022/10/24 03:21:41;;;;;;;80.43;76.47;;;14.50;99.90;;;;;;5075262;28;20402;-57
2022/10/24 03:24:07;;;;;;;77.72;73.60;;;14.50;99.90;;;;;;5057443;28;20495;-57
2022/10/24 03:26:32;;;;;;;84.23;79.83;;;14.40;99.90;;;;;;5074775;28;20380;-56
2022/10/24 03:28:58;;;;;;;80.20;76.13;;;14.40;99.90;;;;;;5056584;28;20410;-59
2022/10/24 03:31:24;;;;;;;79.75;75.85;;;14.40;99.90;;;;;;5056743;28;20380;-58
2022/10/24 03:33:49;;;;;;;82.07;78.03;;;14.40;99.90;;;;;;5056993;28;20394;-57
2022/10/24 03:36:15;;;;;;;84.83;80.47;;;14.40;99.90;;;;;;5056502;28;20419;-59
2022/10/24 03:38:40;;;;;;;74.88;70.88;;;14.30;99.90;;;;;;5074774;28;20402;-59
2022/10/24 03:41:06;;;;;;;78.27;74.47;;;14.30;99.90;;;;;;5055914;28;20391;-57
2022/10/24 03:43:31;;;;;;;80.43;76.43;;;14.30;99.90;;;;;;5055160;28;20440;-58
2022/10/24 03:45:58;;;;;;;78.63;74.55;;;14.30;99.90;;;;;;5073969;28;20470;-59
2022/10/24 03:48:24;;;;;;;79.50;75.60;;;14.30;99.90;;;;;;5056046;28;20412;-59
2022/10/24 03:50:49;;;;;;;79.93;75.95;;;14.30;99.90;;;;;;5056114;28;20442;-59
2022/10/24 03:53:15;;;;;;;76.30;72.50;;;14.30;99.90;;;;;;5054644;28;20384;-56
2022/10/24 03:55:41;;;;;;;79.55;75.45;;;14.30;99.90;;;;;;5053807;28;20786;-59
2022/10/24 03:58:06;;;;;;;77.77;73.77;;;14.30;99.90;;;;;;5055686;28;20464;-59
2022/10/24 04:00:37;;;;;;;86.22;82.00;;;14.20;99.90;;;;;;5052740;28;20384;-58
2022/10/24 04:03:03;;;;;;;80.70;76.55;;;14.20;99.90;;;;;;5052847;28;20448;-54
2022/10/24 04:05:29;;;;;;;74.80;71.10;;;14.30;99.90;;;;;;5053196;28;20424;-57
2022/10/24 04:07:54;;;;;;;84.72;80.13;;;14.20;99.90;;;;;;5070650;28;20596;-59
2022/10/24 04:10:20;;;;;;;78.00;74.00;;;14.20;99.90;;;;;;5071187;28;20788;-60
2022/10/24 04:12:46;;;;;;;81.90;77.90;;;14.20;99.90;;;;;;5052118;28;20718;-59
2022/10/24 04:15:11;;;;;;;75.20;71.40;;;14.20;99.90;;;;;;5069340;28;20383;-58
2022/10/24 04:17:37;;;;;;;82.53;78.03;;;14.20;99.90;;;;;;5050094;28;20387;-59
2022/10/24 04:20:03;;;;;;;84.07;79.87;;;14.20;99.90;;;;;;5049592;28;20388;-59
2022/10/24 04:22:29;;;;;;;76.55;72.68;;;14.20;99.90;;;;;;5049944;28;20516;-60
2022/10/24 04:24:54;;;;;;;83.87;79.47;;;14.20;99.90;;;;;;5048736;28;20410;-58
2022/10/24 04:27:20;;;;;;;77.20;73.33;;;14.20;99.90;;;;;;5067275;28;20707;-56
2022/10/24 04:29:47;;;;;;;79.38;75.18;;;14.20;99.90;;;;;;5051112;28;20675;-59
2022/10/24 04:32:12;;;;;;;80.77;76.67;;;14.20;99.90;;;;;;5052770;28;20400;-57
2022/10/24 04:34:38;;;;;;;85.97;81.53;;;14.20;99.90;;;;;;5072276;28;20410;-54
2022/10/24 04:37:04;;;;;;;85.80;81.40;;;14.10;99.90;;;;;;5054342;28;20817;-58
2022/10/24 04:39:30;;;;;;;79.10;74.95;;;14.10;99.90;;;;;;5054278;28;20410;-57
2022/10/24 04:41:55;;;;;;;78.25;74.15;;;14.10;99.90;;;;;;5053249;28;20473;-57
2022/10/24 04:44:21;;;;;;;76.10;72.30;;;14.10;99.90;;;;;;5052729;28;20778;-58
2022/10/24 04:46:47;;;;;;;85.03;80.73;;;14.10;99.90;;;;;;5051915;28;20423;-58
2022/10/24 04:49:12;;;;;;;77.90;73.90;;;14.10;99.90;;;;;;5052995;28;20387;-59
2022/10/24 04:51:38;;;;;;;83.20;79.00;;;14.10;99.90;;;;;;5053402;28;20384;-58
2022/10/24 04:54:04;;;;;;;78.13;74.17;;;14.10;99.90;;;;;;5050417;28;20763;-55
2022/10/24 04:56:30;;;;;;;82.95;78.88;;;14.10;99.90;;;;;;5046807;28;20387;-57
2022/10/24 04:58:55;;;;;;;81.20;77.10;;;14.10;99.90;;;;;;5045490;28;20563;-57
2022/10/24 05:01:21;;;;;;;72.50;68.60;;;14.10;99.90;;;;;;5044195;28;20676;-56
2022/10/24 05:03:46;;;;;;;77.03;73.03;;;14.10;99.90;;;;;;5041895;28;20714;-57
2022/10/24 05:06:12;;;;;;;82.70;78.60;;;14.00;99.90;;;;;;5057038;28;20470;-57
2022/10/24 05:08:37;;;;;;;78.13;73.90;;;14.00;99.90;;;;;;5056400;28;20415;-58
2022/10/24 05:11:03;;;;;;;82.70;78.47;;;13.90;99.90;;;;;;5043047;28;20388;-58
2022/10/24 05:13:29;;;;;;;80.33;75.90;;;13.90;99.90;;;;;;5042964;28;20672;-56
2022/10/24 05:15:54;;;;;;;88.53;83.47;;;13.90;99.90;;;;;;5061944;28;20395;-58
2022/10/24 05:18:20;;;;;;;88.63;83.72;;;13.90;99.90;;;;;;5044027;28;20392;-59
2022/10/24 05:20:46;;;;;;;98.97;93.82;;;13.90;99.90;;;;;;5045382;28;20394;-58
2022/10/24 05:23:11;;;;;;;95.25;90.35;;;13.90;99.90;;;;;;5046968;28;20391;-59
2022/10/24 05:25:37;;;;;;;92.73;87.93;;;13.90;99.90;;;;;;5046180;28;20691;-56
2022/10/24 05:28:03;;;;;;;96.65;91.50;;;13.90;99.90;;;;;;5044840;28;20396;-57
2022/10/24 05:30:28;;;;;;;104.93;99.15;;;13.80;99.90;;;;;;5060423;28;20826;-56
2022/10/24 05:32:54;;;;;;;97.57;92.13;;;13.80;99.90;;;;;;5045180;28;20485;-56
2022/10/24 05:35:19;;;;;;;106.13;100.67;;;13.90;99.90;;;;;;5043072;28;20565;-58
2022/10/24 05:37:45;;;;;;;98.63;93.25;;;13.90;99.90;;;;;;5042215;28;20536;-56
2022/10/24 05:40:12;;;;;;;104.97;99.40;;;13.80;99.90;;;;;;5043621;28;20399;-56
2022/10/24 05:42:37;;;;;;;100.00;94.50;;;13.80;99.90;;;;;;5061101;28;20380;-57
2022/10/24 05:45:07;;;;;;;107.17;101.13;;;13.90;99.90;;;;;;5040195;28;20572;-56
2022/10/24 05:47:33;;;;;;;111.13;104.90;;;13.80;99.90;;;;;;5041905;28;20383;-59
2022/10/24 05:49:58;;;;;;;110.30;103.70;;;13.80;99.90;;;;;;5042821;28;20452;-55
2022/10/24 05:52:24;;;;;;;114.03;107.60;;;13.80;99.90;;;;;;5042171;28;20482;-56
2022/10/24 05:54:49;;;;;;;119.27;112.67;;;13.80;99.90;;;;;;5041730;28;20484;-54
2022/10/24 05:57:15;;;;;;;110.10;104.25;;;13.80;99.90;;;;;;5043512;28;20677;-57
2022/10/24 05:59:40;;;;;;;114.77;108.63;;;13.80;99.90;;;;;;5046212;28;20864;-57
2022/10/24 06:02:06;;;;;;;118.30;111.83;;;13.80;99.90;;;;;;5043859;28;20660;-57
2022/10/24 06:04:32;;;;;;;106.40;100.05;;;13.80;99.90;;;;;;5043370;28;20403;-60
2022/10/24 06:06:57;;;;;;;106.60;100.70;;;13.80;99.90;;;;;;5044950;28;20445;-55
2022/10/24 06:09:23;;;;;;;110.83;104.97;;;13.80;99.90;;;;;;5046623;28;20655;-62
2022/10/24 06:11:48;;;;;;;118.57;112.03;;;13.80;99.90;;;;;;5046174;28;20379;-58
2022/10/24 06:14:15;;;;;;;116.85;110.38;;;13.80;99.90;;;;;;5045720;28;20477;-55
2022/10/24 06:16:41;;;;;;;109.65;103.80;;;13.80;99.90;;;;;;5046409;28;20387;-57
2022/10/24 06:19:07;;;;;;;108.53;102.68;;;13.80;99.90;;;;;;5065657;28;20788;-58
2022/10/24 06:21:32;;;;;;;104.70;99.13;;;13.90;99.90;;;;;;5046999;28;20453;-59
2022/10/24 06:23:58;;;;;;;105.10;99.43;;;13.90;99.90;;;;;;5062739;28;20510;-59
2022/10/24 06:26:24;;;;;;;101.90;96.25;;;13.90;99.90;;;;;;5062677;28;20658;-58
2022/10/24 06:28:50;;;;;;;102.20;96.18;;;13.90;99.90;;;;;;5062892;28;20407;-58
2022/10/24 06:31:17;;;;;;;112.82;106.35;;;13.90;99.90;;;;;;5045669;28;20535;-58
2022/10/24 06:33:42;;;;;;;103.28;97.65;;;13.90;99.90;;;;;;5061412;28;20698;-58
2022/10/24 06:36:10;;;;;;;101.97;96.53;;;13.90;99.90;;;;;;5060209;28;20830;-58
2022/10/24 06:38:36;;;;;;;100.53;95.00;;;13.90;99.90;;;;;;5039955;28;20497;-55
2022/10/24 06:41:06;;;;;;;100.28;94.38;;;13.90;99.90;;;;;;5039960;28;20410;-56
2022/10/24 06:43:32;;;;;;;101.63;96.03;;;14.00;99.90;;;;;;5059934;28;20624;-57
2022/10/24 06:45:58;;;;;;;96.55;91.43;;;14.00;99.90;;;;;;5059555;28;20411;-57
2022/10/24 06:48:23;;;;;;;93.85;88.50;;;14.00;99.90;;;;;;5039718;28;20386;-59
2022/10/24 06:50:49;;;;;;;110.87;104.87;;;14.00;99.90;;;;;;5057165;28;20866;-54
2022/10/24 06:53:14;;;;;;;108.68;103.05;;;14.00;99.90;;;;;;5043918;28;20375;-55
2022/10/24 06:55:40;;;;;;;106.87;101.00;;;14.00;99.90;;;;;;5043620;28;20532;-57
2022/10/24 06:58:05;;;;;;;101.00;95.53;;;14.00;99.90;;;;;;5060080;28;20383;-59
2022/10/24 07:00:32;;;;;;;108.63;102.90;;;14.00;99.90;;;;;;5042257;28;20533;-59
2022/10/24 07:02:58;;;;;;;104.43;98.63;;;14.10;99.90;;;;;;5045693;28;20391;-58
2022/10/24 07:05:24;;;;;;;102.60;96.70;;;14.10;99.90;;;;;;5047935;28;20745;-59
2022/10/24 07:07:50;;;;;;;115.45;109.30;;;14.10;99.90;;;;;;5064432;28;21181;-55
2022/10/24 07:10:15;;;;;;;110.20;104.10;;;14.10;99.90;;;;;;5063266;28;20445;-58
2022/10/24 07:12:42;;;;;;;105.40;99.77;;;14.10;99.90;;;;;;5061435;28;20823;-58
2022/10/24 07:15:08;;;;;;;108.22;102.32;;;14.10;99.90;;;;;;5043056;28;20399;-58
2022/10/24 07:17:44;;;;;;;106.47;100.38;;;14.10;99.90;;;;;;5042887;28;20367;-57
2022/10/24 07:20:12;;;;;;;114.47;108.25;;;14.10;99.90;;;;;;5041451;28;20392;-58
2022/10/24 07:22:37;;;;;;;111.00;104.85;;;14.10;99.90;;;;;;5041055;28;20510;-59
2022/10/24 07:25:05;;;;;;;105.07;98.97;;;14.20;99.90;;;;;;5050034;28;21010;-59
2022/10/24 07:27:30;;;;;;;107.20;101.10;;;14.20;99.90;;;;;;5029845;28;20386;-60
2022/10/24 07:29:56;;;;;;;104.00;98.30;;;14.20;99.90;;;;;;5029602;28;20404;-59
2022/10/24 07:32:21;;;;;;;101.77;96.13;;;14.20;99.90;;;;;;5028224;28;20384;-57
2022/10/24 07:34:47;;;;;;;102.97;97.03;;;14.30;99.90;;;;;;5027696;28;20438;-55
2022/10/24 07:37:14;;;;;;;100.50;95.00;;;14.30;99.90;;;;;;5025074;28;20425;-57
2022/10/24 07:39:40;;;;;;;98.53;92.87;;;14.40;99.90;;;;;;5025262;28;20611;-56
2022/10/24 07:42:05;;;;;;;94.87;89.47;;;14.50;99.90;;;;;;5030298;28;20386;-57
2022/10/24 07:44:31;;;;;;;89.93;85.03;;;14.50;99.90;;;;;;5030878;28;20924;-59
2022/10/24 07:46:57;;;;;;;89.13;83.85;;;14.50;99.90;;;;;;5029316;28;20385;-54
2022/10/24 07:49:23;;;;;;;84.90;80.03;;;14.50;99.90;;;;;;5032938;28;20397;-58
2022/10/24 07:51:48;;;;;;;85.15;80.35;;;14.50;99.90;;;;;;5032625;28;20444;-59
2022/10/24 07:54:14;;;;;;;91.63;86.27;;;14.50;99.90;;;;;;5021529;28;20492;-54
2022/10/24 07:56:39;;;;;;;88.63;83.67;;;14.50;99.90;;;;;;5042407;28;20389;-59
2022/10/24 07:59:05;;;;;;;86.75;81.90;;;14.60;99.90;;;;;;5042839;28;21010;-60
2022/10/24 08:01:30;;;;;;;88.60;83.72;;;14.60;99.90;;;;;;5042850;28;20476;-59
2022/10/24 08:03:56;;;;;;;80.53;75.77;;;14.70;99.90;;;;;;5040325;28;20889;-58
2022/10/24 08:06:29;;;;;;;83.57;79.07;;;14.70;99.90;;;;;;5041537;28;20424;-59
2022/10/24 08:08:55;;;;;;;79.85;75.35;;;14.80;99.90;;;;;;5039572;28;20389;-60
2022/10/24 08:11:24;;;;;;;78.35;74.05;;;14.80;99.90;;;;;;5041149;28;20386;-56
2022/10/24 08:13:51;;;;;;;78.43;73.97;;;14.80;99.90;;;;;;5043026;28;20401;-59
2022/10/24 08:16:22;;;;;;;83.88;79.03;;;14.80;99.90;;;;;;5043684;28;20397;-58
2022/10/24 08:18:49;;;;;;;78.07;73.72;;;14.90;99.90;;;;;;5044994;28;20392;-58
2022/10/24 08:21:16;;;;;;;74.43;70.23;;;14.90;99.90;;;;;;5043009;28;20393;-59
2022/10/24 08:23:44;;;;;;;75.85;71.30;;;15.00;99.90;;;;;;5044848;28;20412;-58
2022/10/24 08:26:13;;;;;;;71.38;67.10;;;15.00;99.90;;;;;;5046798;28;20761;-59
2022/10/24 08:28:40;;;;;;;78.72;74.47;;;15.00;99.90;;;;;;5044220;28;20428;-57
2022/10/24 08:31:10;;;;;;;71.88;67.57;;;15.10;99.90;;;;;;5040007;28;20381;-59
2022/10/24 08:33:36;;;;;;;68.10;64.18;;;15.10;99.90;;;;;;5040734;28;20385;-59
2022/10/24 08:36:05;;;;;;;70.10;65.97;;;15.20;99.90;;;;;;5040951;28;20440;-59
2022/10/24 08:38:31;;;;;;;68.40;64.57;;;15.20;99.90;;;;;;5040061;28;20400;-59
2022/10/24 08:40:57;;;;;;;67.03;63.05;;;15.30;99.90;;;;;;5038373;28;20381;-57
2022/10/24 08:43:23;;;;;;;71.55;67.25;;;15.40;99.90;;;;;;5040422;28;20453;-59
2022/10/24 08:46:13;;;;;;;66.90;62.83;;;15.40;99.90;;;;;;5040191;28;20924;-58
2022/10/24 08:48:57;;;;;;;63.15;59.17;;;15.40;99.90;;;;;;5039443;28;21202;-58
2022/10/24 08:51:56;;;;;;;63.08;59.22;;;15.50;99.90;;;;;;5040044;28;20827;-56
2022/10/24 08:54:28;;;;;;;62.03;58.40;;;15.60;99.90;;;;;;5025144;28;20796;-59
2022/10/24 08:56:56;;;;;;;58.47;54.78;;;15.60;99.90;;;;;;5036047;28;20392;-56
2022/10/24 08:59:26;;;;;;;54.53;51.35;;;15.70;99.90;;;;;;5035044;28;20397;-57
2022/10/24 09:01:56;;;;;;;52.72;49.72;;;15.80;99.90;;;;;;5037293;28;20436;-57
2022/10/24 09:04:25;;;;;;;58.35;54.85;;;15.80;99.90;;;;;;5039409;28;20409;-58
2022/10/24 09:06:52;;;;;;;60.13;56.25;;;15.80;99.90;;;;;;5037034;28;20392;-58
2022/10/24 09:09:35;;;;;;;50.10;46.85;;;15.80;99.90;;;;;;5035147;28;20762;-59
2022/10/24 09:12:10;;;;;;;50.50;47.45;;;15.80;99.90;;;;;;5033656;28;20502;-58
2022/10/24 09:14:37;;;;;;;56.92;53.33;;;15.80;99.90;;;;;;5033994;28;20404;-55
2022/10/24 09:17:15;;;;;;;55.05;51.35;;;15.90;99.90;;;;;;5035063;28;20596;-58
2022/10/24 09:19:52;;;;;;;59.10;55.33;;;16.00;99.90;;;;;;5028372;28;20769;-59
2022/10/24 09:22:19;;;;;;;55.30;51.78;;;16.10;99.90;;;;;;5027915;28;20567;-58
2022/10/24 09:24:49;;;;;;;47.63;44.88;;;16.30;99.90;;;;;;5028740;28;20453;-58
2022/10/24 09:27:37;;;;;;;65.27;61.17;;;16.40;99.90;;;;;;5031792;28;20735;-59
2022/10/24 09:30:05;;;;;;;65.55;61.03;;;16.50;99.90;;;;;;5030579;28;20389;-59
2022/10/24 09:32:34;;;;;;;55.95;52.50;;;16.50;99.90;;;;;;5032726;28;20417;-58
2022/10/24 09:35:02;;;;;;;72.50;67.93;;;16.60;99.90;;;;;;5034038;28;20403;-59
2022/10/24 09:37:43;;;;;;;66.10;62.20;;;16.60;99.90;;;;;;5053898;28;20420;-58
2022/10/24 09:40:20;;;;;;;76.90;72.55;;;16.60;99.90;;;;;;5037095;28;20514;-59
2022/10/24 09:43:02;;;;;;;81.97;77.35;;;16.60;99.90;;;;;;5037761;28;20474;-58
2022/10/24 09:45:44;;;;;;;80.40;75.65;;;16.60;99.90;;;;;;5037002;28;20498;-59
2022/10/24 09:48:15;;;;;;;79.85;74.93;;;16.60;99.90;;;;;;5057762;28;20585;-59
2022/10/24 09:50:43;;;;;;;84.82;79.50;;;16.70;99.90;;;;;;5040216;28;20380;-59
2022/10/24 09:53:31;;;;;;;80.80;75.85;;;16.70;99.90;;;;;;5037134;28;20383;-57
2022/10/24 09:56:10;;;;;;;74.25;69.68;;;16.80;99.90;;;;;;5037072;28;20998;-55
2022/10/24 09:58:36;;;;;;;84.78;79.88;;;16.90;99.90;;;;;;5038099;28;20468;-59
2022/10/24 10:01:21;;;;;;;82.95;78.25;;;17.00;99.90;;;;;;5052073;28;20943;-57
2022/10/24 10:04:16;;;;;;;111.65;105.60;;;17.20;99.90;;;;;;5031505;28;20445;-58
2022/10/24 10:06:47;;;;;;;122.70;115.95;;;17.40;99.90;;;;;;5028429;28;20379;-56
2022/10/24 10:09:22;;;;;;;111.75;105.55;;;17.50;99.90;;;;;;5032419;28;20814;-58
2022/10/24 10:11:55;;;;;;;103.60;98.00;;;17.70;99.90;;;;;;5033763;28;20787;-60
2022/10/24 10:14:28;;;;;;;106.45;100.50;;;17.90;99.90;;;;;;5033186;28;20749;-59
2022/10/24 10:17:03;;;;;;;85.43;80.53;;;18.00;99.90;;;;;;5034233;28;20391;-56
2022/10/24 10:19:35;;;;;;;84.93;79.82;;;18.00;99.90;;;;;;5033889;28;20525;-57
2022/10/24 10:22:19;;;;;;;91.85;86.70;;;18.10;99.90;;;;;;5033175;28;20439;-60
2022/10/24 10:24:45;;;;;;;89.55;84.03;;;18.20;99.90;;;;;;5033261;28;20396;-59
2022/10/24 10:27:40;;;;;;;90.00;84.75;;;18.20;99.90;;;;;;5035010;28;20400;-59
2022/10/24 10:30:12;;;;;;;87.07;81.87;;;18.30;99.90;;;;;;5026319;28;20423;-59
2022/10/24 10:33:05;;;;;;;92.18;86.88;;;18.40;99.90;;;;;;5051302;28;20380;-59
2022/10/24 10:35:46;;;;;;;110.10;104.15;;;18.60;99.90;;;;;;5055250;28;20432;-59
2022/10/24 10:38:45;;;;;;;94.33;89.03;;;18.50;99.90;;;;;;5035772;28;20391;-57
2022/10/24 10:41:16;;;;;;;97.25;91.43;;;18.50;99.90;;;;;;5036540;28;20383;-56
2022/10/24 10:44:10;;;;;;;107.70;101.60;;;18.60;99.90;;;;;;5055475;28;20391;-57
2022/10/24 10:46:43;;;;;;;95.72;90.25;;;18.50;99.90;;;;;;5039564;28;20758;-59
2022/10/24 10:49:08;;;;;;;129.07;122.00;;;18.70;99.90;;;;;;5038252;28;20496;-59
2022/10/24 10:51:42;;;;;;;108.63;102.43;;;18.70;99.90;;;;;;5035444;28;20444;-56
2022/10/24 10:54:29;;;;;;;98.90;93.32;;;18.40;99.90;;;;;;5052207;28;20383;-57
2022/10/24 10:57:30;;;;;;;94.90;89.47;;;18.30;99.90;;;;;;5033807;28;20495;-57
2022/10/24 10:59:57;;;;;;;90.05;85.32;;;18.30;99.90;;;;;;5017351;28;20494;-59
2022/10/24 11:02:32;;;;;;;104.45;98.80;;;18.20;99.90;;;;;;5026249;28;20438;-58
2022/10/24 11:05:15;;;;;;;90.63;85.70;;;18.10;99.90;;;;;;5028943;28;20434;-57
2022/10/24 11:07:54;;;;;;;84.55;79.68;;;18.10;99.90;;;;;;5032228;28;20806;-58
2022/10/24 11:10:23;;;;;;;91.95;87.03;;;18.10;99.90;;;;;;5046261;28;20779;-57
2022/10/24 11:12:49;;;;;;;97.45;91.85;;;18.20;99.90;;;;;;5046213;28;20379;-58
2022/10/24 11:15:26;;;;;;;97.47;92.30;;;18.20;99.90;;;;;;5026884;28;20637;-59
2022/10/24 11:17:55;;;;;;;103.95;98.20;;;18.20;99.90;;;;;;5025982;28;20395;-60
2022/10/24 11:20:51;;;;;;;106.45;100.75;;;18.30;99.90;;;;;;5024690;28;20376;-55
2022/10/24 11:23:36;;;;;;;112.55;106.57;;;18.30;99.90;;;;;;5023311;28;20663;-59
2022/10/24 11:26:14;;;;;;;120.50;114.30;;;18.40;99.90;;;;;;5026913;28;20730;-56
2022/10/24 11:28:45;;;;;;;126.72;119.97;;;18.50;99.90;;;;;;5055655;28;20384;-59
2022/10/24 11:31:16;;;;;;;126.82;119.85;;;18.50;99.90;;;;;;5044963;28;20387;-59
2022/10/24 11:33:53;;;;;;;118.53;112.28;;;18.50;99.90;;;;;;5045532;28;20426;-59
2022/10/24 11:36:22;;;;;;;125.50;118.95;;;18.50;99.90;;;;;;5043332;28;20859;-58
2022/10/24 11:39:11;;;;;;;137.67;130.40;;;18.50;99.90;;;;;;5044529;28;20447;-57
2022/10/24 11:41:56;;;;;;;128.93;121.82;;;18.50;99.90;;;;;;5047246;28;20397;-59
2022/10/24 11:45:14;;;;;;;136.48;128.82;;;18.50;99.90;;;;;;5046084;28;20405;-60
2022/10/24 11:48:04;;;;;;;127.05;120.03;;;18.50;99.90;;;;;;5031208;28;20400;-59
2022/10/24 11:50:36;;;;;;;133.68;126.53;;;18.40;99.90;;;;;;5042772;28;20417;-60
2022/10/24 11:53:02;;;;;;;127.63;120.87;;;18.40;99.90;;;;;;5043206;28;20465;-59
2022/10/24 11:55:37;;;;;;;121.03;114.33;;;18.40;99.90;;;;;;5042279;28;20476;-59
2022/10/24 11:58:07;;;;;;;125.57;118.77;;;18.30;99.90;;;;;;5039086;28;20411;-60
2022/10/24 12:01:04;;;;;;;128.18;121.03;;;18.30;99.90;;;;;;5036216;28;20508;-59
2022/10/24 12:04:02;;;;;;;127.50;120.32;;;18.30;99.90;;;;;;5023948;28;20389;-58
2022/10/24 12:06:57;;;;;;;115.97;109.72;;;18.40;99.90;;;;;;5032513;28;20392;-60
2022/10/24 12:09:26;;;;;;;102.35;96.45;;;18.40;99.90;;;;;;5029577;28;20420;-56
2022/10/24 12:12:32;;;;;;;118.23;111.73;;;18.40;99.90;;;;;;5028376;28;20389;-58
2022/10/24 12:15:19;;;;;;;119.40;112.65;;;18.40;99.90;;;;;;5030713;28;20447;-60
2022/10/24 12:17:57;;;;;;;113.68;107.57;;;18.50;99.90;;;;;;5031473;28;20475;-60
2022/10/24 12:20:25;;;;;;;124.97;118.15;;;18.50;99.90;;;;;;5031683;28;20405;-59
2022/10/24 12:22:52;;;;;;;117.55;111.32;;;18.50;99.90;;;;;;5032077;28;20643;-60
2022/10/24 12:25:34;;;;;;;109.63;103.50;;;18.50;99.90;;;;;;5032268;28;20443;-60
2022/10/24 12:28:03;;;;;;;103.77;97.80;;;18.50;99.90;;;;;;5034079;28;20447;-60
2022/10/24 12:30:34;;;;;;;109.63;103.80;;;18.40;99.90;;;;;;5036072;28;20443;-59
2022/10/24 12:33:09;;;;;;;109.50;103.50;;;18.40;99.90;;;;;;5035893;28;20473;-60
2022/10/24 12:35:43;;;;;;;116.95;110.60;;;18.40;99.90;;;;;;5035973;28;20529;-59
2022/10/24 12:38:58;;;;;;;105.60;99.78;;;18.30;99.90;;;;;;5034172;28;20663;-59
2022/10/24 12:41:32;;;;;;;115.40;109.10;;;18.30;99.90;;;;;;5034933;28;20442;-59